createdAt,value
2022-11-22T00:01:23.945Z,-19.32
2022-11-22T00:03:52.772Z,-19.29
2022-11-22T00:06:21.520Z,-19.26
2022-11-22T00:08:50.385Z,-19.26
2022-11-22T00:11:19.172Z,-19.26
2022-11-22T00:13:48.464Z,-19.23
2022-11-22T00:16:17.483Z,-19.21
2022-11-22T00:18:46.249Z,-19.18
2022-11-22T00:21:15.121Z,-19.20
2022-11-22T00:23:44.086Z,-19.27
2022-11-22T00:26:13.010Z,-19.23
2022-11-22T00:28:41.720Z,-19.23
2022-11-22T00:31:10.419Z,-19.25
2022-11-22T00:33:39.349Z,-19.23
2022-11-22T00:36:08.206Z,-19.26
2022-11-22T00:38:37.026Z,-19.23
2022-11-22T00:41:06.054Z,-19.21
2022-11-22T00:43:35.254Z,-19.13
2022-11-22T00:46:03.985Z,-19.08
2022-11-22T00:48:33.300Z,-19.06
2022-11-22T00:51:02.091Z,-19.03
2022-11-22T00:53:30.876Z,-19.05
2022-11-22T00:55:59.649Z,-19.00
2022-11-22T00:58:28.558Z,-18.98
2022-11-22T01:00:58.051Z,-19.00
2022-11-22T01:03:27.120Z,-18.99
2022-11-22T01:05:55.918Z,-18.91
2022-11-22T01:08:24.679Z,-18.86
2022-11-22T01:10:58.526Z,-18.80
2022-11-22T01:13:29.070Z,-18.76
2022-11-22T01:16:06.630Z,-18.71
2022-11-22T01:18:35.979Z,-18.66
2022-11-22T01:21:06.530Z,-18.60
2022-11-22T01:23:35.689Z,-18.57
2022-11-22T01:26:04.733Z,-18.51
2022-11-22T01:28:33.424Z,-18.49
2022-11-22T01:31:02.207Z,-18.49
2022-11-22T01:33:31.048Z,-18.43
2022-11-22T01:35:59.866Z,-18.40
2022-11-22T01:38:28.654Z,-18.28
2022-11-22T01:40:57.516Z,-18.19
2022-11-22T01:43:28.652Z,-18.05
2022-11-22T01:46:08.851Z,-17.99
2022-11-22T01:48:53.557Z,-17.92
2022-11-22T01:51:29.448Z,-17.88
2022-11-22T01:54:02.975Z,-17.83
2022-11-22T01:56:33.259Z,-17.80
2022-11-22T01:59:07.995Z,-17.70
2022-11-22T02:01:38.176Z,-17.56
2022-11-22T02:04:09.873Z,-17.43
2022-11-22T02:07:09.263Z,-17.28
2022-11-22T02:09:40.059Z,-17.21
2022-11-22T02:12:10.792Z,-17.18
2022-11-22T02:14:41.122Z,-17.11
2022-11-22T02:17:09.811Z,-17.11
2022-11-22T02:19:44.607Z,-17.09
2022-11-22T02:22:37.230Z,-16.86
2022-11-22T02:25:27.596Z,-16.60
2022-11-22T02:27:56.605Z,-16.29
2022-11-22T02:30:25.720Z,-16.01
2022-11-22T02:32:54.414Z,-15.91
2022-11-22T02:35:24.875Z,-15.87
2022-11-22T02:37:58.170Z,-15.81
2022-11-22T02:40:30.332Z,-15.69
2022-11-22T02:43:21.518Z,-15.32
2022-11-22T02:45:50.576Z,-15.06
2022-11-22T02:48:19.855Z,-15.00
2022-11-22T02:50:48.702Z,-15.03
2022-11-22T02:53:17.578Z,-15.06
2022-11-22T02:55:46.329Z,-15.09
2022-11-22T02:58:15.093Z,-15.08
2022-11-22T03:00:44.922Z,-15.11
2022-11-22T03:03:13.956Z,-15.13
2022-11-22T03:05:42.683Z,-15.12
2022-11-22T03:08:11.642Z,-15.10
2022-11-22T03:10:40.332Z,-15.14
2022-11-22T03:13:09.119Z,-15.08
2022-11-22T03:15:37.869Z,-15.00
2022-11-22T03:18:06.707Z,-14.91
2022-11-22T03:20:35.583Z,-14.80
2022-11-22T03:23:04.294Z,-14.68
2022-11-22T03:25:33.067Z,-14.49
2022-11-22T03:28:01.826Z,-14.37
2022-11-22T03:30:30.700Z,-14.23
2022-11-22T03:32:59.751Z,-14.09
2022-11-22T03:35:28.701Z,-13.98
2022-11-22T03:37:57.481Z,-13.94
2022-11-22T03:40:26.220Z,-13.95
2022-11-22T03:42:54.967Z,-13.99
2022-11-22T03:45:23.723Z,-14.04
2022-11-22T03:47:52.429Z,-13.96
2022-11-22T03:50:21.223Z,-13.90
2022-11-22T03:52:50.044Z,-13.73
2022-11-22T03:55:18.850Z,-13.44
2022-11-22T03:57:47.749Z,-13.19
2022-11-22T04:00:18.302Z,-13.02
2022-11-22T04:02:47.214Z,-12.87
2022-11-22T04:05:16.580Z,-12.70
2022-11-22T04:07:45.470Z,-12.59
2022-11-22T04:10:16.486Z,-12.45
2022-11-22T04:12:47.932Z,-12.33
2022-11-22T04:15:16.806Z,-12.20
2022-11-22T04:17:46.375Z,-12.07
2022-11-22T04:20:39.445Z,-12.03
2022-11-22T04:23:16.900Z,-12.11
2022-11-22T04:25:49.042Z,-12.10
2022-11-22T04:28:20.079Z,-12.09
2022-11-22T04:31:08.455Z,-12.03
2022-11-22T04:33:37.767Z,-11.92
2022-11-22T04:36:11.868Z,-11.90
2022-11-22T04:38:41.996Z,-11.82
2022-11-22T04:41:10.779Z,-11.78
2022-11-22T04:44:08.907Z,-11.73
2022-11-22T04:46:37.749Z,-11.58
2022-11-22T04:49:06.552Z,-11.57
2022-11-22T04:51:53.781Z,-11.61
2022-11-22T04:54:22.545Z,-11.47
2022-11-22T04:56:51.340Z,-11.29
2022-11-22T04:59:20.140Z,-11.18
2022-11-22T05:01:49.724Z,-11.12
2022-11-22T05:04:18.690Z,-11.02
2022-11-22T05:06:47.621Z,-10.97
2022-11-22T05:09:17.211Z,-10.91
2022-11-22T05:11:45.931Z,-10.84
2022-11-22T05:14:14.668Z,-10.80
2022-11-22T05:16:43.539Z,-10.71
2022-11-22T05:19:12.549Z,-10.77
2022-11-22T05:21:41.306Z,-10.79
2022-11-22T05:24:10.205Z,-10.69
2022-11-22T05:26:39.033Z,-10.63
2022-11-22T05:29:09.962Z,-10.64
2022-11-22T05:31:40.526Z,-10.58
2022-11-22T05:34:09.328Z,-10.50
2022-11-22T05:36:38.142Z,-10.52
2022-11-22T05:39:06.943Z,-10.59
2022-11-22T05:41:35.724Z,-10.69
2022-11-22T05:44:04.553Z,-10.86
2022-11-22T05:46:33.315Z,-10.98
2022-11-22T05:49:02.240Z,-11.02
2022-11-22T05:51:34.490Z,-11.02
2022-11-22T05:54:04.564Z,-10.97
2022-11-22T05:56:33.329Z,-11.15
2022-11-22T05:59:02.107Z,-11.25
2022-11-22T06:01:31.867Z,-11.23
2022-11-22T06:04:00.862Z,-11.24
2022-11-22T06:06:29.629Z,-11.30
2022-11-22T06:09:00.131Z,-11.19
2022-11-22T06:11:29.257Z,-11.17
2022-11-22T06:14:00.690Z,-11.18
2022-11-22T06:16:29.825Z,-11.32
2022-11-22T06:18:58.649Z,-11.59
2022-11-22T06:21:29.137Z,-11.90
2022-11-22T06:23:58.588Z,-12.07
2022-11-22T06:26:28.048Z,-12.30
2022-11-22T06:28:56.837Z,-12.42
2022-11-22T06:31:27.425Z,-12.42
2022-11-22T06:34:00.207Z,-12.25
2022-11-22T06:36:31.931Z,-11.91
2022-11-22T06:39:01.250Z,-11.66
2022-11-22T06:41:34.546Z,-11.47
2022-11-22T06:44:08.678Z,-11.44
2022-11-22T06:46:38.350Z,-11.36
2022-11-22T06:49:07.224Z,-11.35
2022-11-22T06:51:36.080Z,-11.44
2022-11-22T06:54:05.003Z,-11.53
2022-11-22T06:56:38.364Z,-11.57
2022-11-22T06:59:08.076Z,-11.56
2022-11-22T07:01:38.191Z,-11.68
2022-11-22T07:04:07.360Z,-11.74
2022-11-22T07:06:39.096Z,-11.74
2022-11-22T07:09:10.770Z,-11.73
2022-11-22T07:11:41.028Z,-11.72
2022-11-22T07:14:09.939Z,-11.74
2022-11-22T07:16:39.443Z,-11.81
2022-11-22T07:19:08.635Z,-11.93
2022-11-22T07:21:40.493Z,-11.98
2022-11-22T07:24:09.599Z,-12.00
2022-11-22T07:26:38.595Z,-11.94
2022-11-22T07:29:07.556Z,-11.86
2022-11-22T07:31:36.559Z,-11.79
2022-11-22T07:34:05.420Z,-11.80
2022-11-22T07:36:34.196Z,-11.83
2022-11-22T07:39:04.309Z,-11.82
2022-11-22T07:41:33.361Z,-11.77
2022-11-22T07:44:02.203Z,-11.68
2022-11-22T07:46:32.035Z,-11.60
2022-11-22T07:49:02.523Z,-11.55
2022-11-22T07:51:31.760Z,-11.55
2022-11-22T07:54:00.636Z,-11.57
2022-11-22T07:56:29.462Z,-11.68
2022-11-22T07:58:58.357Z,-11.82
2022-11-22T08:01:27.810Z,-11.92
2022-11-22T08:03:57.540Z,-12.03
2022-11-22T08:06:26.681Z,-12.08
2022-11-22T08:09:01.585Z,-12.13
2022-11-22T08:11:30.993Z,-12.09
2022-11-22T08:13:59.911Z,-12.10
2022-11-22T08:16:28.789Z,-12.19
2022-11-22T08:18:58.722Z,-12.28
2022-11-22T08:21:27.442Z,-12.31
2022-11-22T08:23:59.319Z,-12.33
2022-11-22T08:26:28.600Z,-12.39
2022-11-22T08:28:57.301Z,-12.51
2022-11-22T08:31:27.782Z,-12.53
2022-11-22T08:33:56.795Z,-12.58
2022-11-22T08:36:25.537Z,-12.68
2022-11-22T08:38:54.671Z,-12.68
2022-11-22T08:41:24.229Z,-12.69
2022-11-22T08:43:54.186Z,-12.68
2022-11-22T08:46:22.936Z,-12.72
2022-11-22T08:48:53.634Z,-12.75
2022-11-22T08:51:22.473Z,-12.74
2022-11-22T08:53:51.196Z,-12.81
2022-11-22T08:56:20.178Z,-12.79
2022-11-22T08:58:49.017Z,-12.85
2022-11-22T09:01:19.864Z,-12.74
2022-11-22T09:03:48.905Z,-12.76
2022-11-22T09:11:59.206Z,-12.87
2022-11-22T09:14:27.967Z,-12.83
2022-11-22T09:16:56.728Z,-12.82
2022-11-22T09:19:26.149Z,-12.82
2022-11-22T09:21:54.879Z,-12.83
2022-11-22T09:24:23.708Z,-12.89
2022-11-22T09:26:52.529Z,-12.85
2022-11-22T09:29:21.363Z,-12.86
2022-11-22T09:31:50.214Z,-12.83
2022-11-22T09:34:19.067Z,-12.85
2022-11-22T09:36:47.851Z,-12.83
2022-11-22T09:39:16.590Z,-12.83
2022-11-22T09:41:48.291Z,-12.77
2022-11-22T09:44:26.176Z,-12.69
2022-11-22T09:47:04.624Z,-12.68
2022-11-22T09:49:52.057Z,-12.67
2022-11-22T09:52:28.083Z,-12.63
2022-11-22T09:55:07.909Z,-12.58
2022-11-22T09:57:50.537Z,-12.55
2022-11-22T10:00:28.652Z,-12.60
2022-11-22T10:03:19.059Z,-12.54
2022-11-22T10:05:52.745Z,-12.48
2022-11-22T10:08:46.423Z,-12.44
2022-11-22T10:11:52.701Z,-12.33
2022-11-22T10:14:42.629Z,-12.26
2022-11-22T10:17:20.561Z,-12.21
2022-11-22T10:20:02.603Z,-12.22
2022-11-22T10:22:33.052Z,-12.20
2022-11-22T10:25:10.327Z,-12.18
2022-11-22T10:27:41.885Z,-12.19
2022-11-22T10:30:21.886Z,-12.22
2022-11-22T10:32:59.601Z,-12.13
2022-11-22T10:35:46.421Z,-12.08
2022-11-22T10:38:44.808Z,-12.06
2022-11-22T10:41:55.755Z,-12.09
2022-11-22T10:44:32.151Z,-12.13
2022-11-22T10:47:12.134Z,-12.13
2022-11-22T10:50:07.023Z,-12.13
2022-11-22T10:53:00.350Z,-12.14
2022-11-22T10:55:50.465Z,-12.15
2022-11-22T10:58:29.479Z,-12.17
2022-11-22T11:01:16.684Z,-12.18
2022-11-22T11:03:48.715Z,-12.16
2022-11-22T11:06:37.504Z,-12.16
2022-11-22T11:10:08.990Z,-12.18
2022-11-22T11:12:43.975Z,-12.16
2022-11-22T11:15:23.643Z,-12.18
2022-11-22T11:18:01.711Z,-12.17
2022-11-22T11:20:37.135Z,-12.20
2022-11-22T11:23:15.201Z,-12.19
2022-11-22T11:25:49.673Z,-12.15
2022-11-22T11:28:27.570Z,-12.17
2022-11-22T11:30:57.778Z,-12.10
2022-11-22T11:33:31.911Z,-12.11
2022-11-22T11:36:07.847Z,-12.09
2022-11-22T11:38:49.064Z,-12.10
2022-11-22T11:41:30.778Z,-12.06
2022-11-22T11:44:02.174Z,-11.99
2022-11-22T11:46:46.089Z,-11.88
2022-11-22T11:49:35.160Z,-11.81
2022-11-22T11:52:09.289Z,-11.73
2022-11-22T11:54:45.417Z,-11.67
2022-11-22T11:57:26.375Z,-11.65
2022-11-22T11:59:57.519Z,-11.59
2022-11-22T12:02:38.996Z,-11.51
2022-11-22T12:05:25.200Z,-11.49
2022-11-22T12:07:54.238Z,-11.46
2022-11-22T12:10:30.984Z,-11.52
2022-11-22T12:13:06.829Z,-11.46
2022-11-22T12:15:35.473Z,-11.42
2022-11-22T12:18:32.236Z,-11.41
2022-11-22T12:21:20.269Z,-11.42
2022-11-22T12:24:48.425Z,-11.34
2022-11-22T12:27:15.371Z,-11.29
2022-11-22T12:29:46.359Z,-11.24
2022-11-22T12:32:39.749Z,-11.14
2022-11-22T12:35:21.055Z,-11.07
2022-11-22T12:38:09.884Z,-11.01
2022-11-22T12:40:46.445Z,-10.93
2022-11-22T12:43:47.026Z,-10.92
2022-11-22T12:46:26.548Z,-10.81
2022-11-22T12:49:04.139Z,-10.76
2022-11-22T12:51:55.243Z,-10.71
2022-11-22T12:54:33.353Z,-10.68
2022-11-22T12:57:53.787Z,-10.61
2022-11-22T13:00:28.849Z,-10.60
2022-11-22T13:03:14.456Z,-10.54
2022-11-22T13:05:59.416Z,-10.39
2022-11-22T13:08:53.271Z,-10.29
2022-11-22T13:11:41.618Z,-10.16
2022-11-22T13:14:21.967Z,-10.08
2022-11-22T13:16:54.296Z,-10.04
2022-11-22T13:19:26.821Z,-9.81
2022-11-22T13:22:09.400Z,-9.62
2022-11-22T13:25:05.323Z,-9.31
2022-11-22T13:27:44.896Z,-9.14
2022-11-22T13:30:26.389Z,-9.04
2022-11-22T13:32:58.535Z,-8.97
2022-11-22T13:35:34.098Z,-8.90
2022-11-22T13:38:19.295Z,-8.87
2022-11-22T13:40:52.105Z,-8.79
2022-11-22T13:43:22.721Z,-8.76
2022-11-22T13:45:58.858Z,-8.69
2022-11-22T13:48:43.012Z,-8.63
2022-11-22T13:51:14.195Z,-8.67
2022-11-22T13:53:48.501Z,-8.65
2022-11-22T13:56:17.423Z,-8.65
2022-11-22T13:58:51.469Z,-8.62
2022-11-22T14:01:39.023Z,-8.69
2022-11-22T14:04:17.366Z,-8.65
2022-11-22T14:06:58.520Z,-8.59
2022-11-22T14:09:53.711Z,-8.66
2022-11-22T14:12:34.588Z,-8.68
2022-11-22T14:15:21.489Z,-8.68
2022-11-22T14:18:27.173Z,-8.67
2022-11-22T14:21:15.059Z,-8.77
2022-11-22T14:24:14.514Z,-8.77
2022-11-22T14:27:10.808Z,-8.80
2022-11-22T14:29:53.500Z,-8.84
2022-11-22T14:32:25.715Z,-8.86
2022-11-22T14:35:06.873Z,-8.88
2022-11-22T14:37:45.775Z,-8.94
2022-11-22T14:40:31.453Z,-8.94
2022-11-22T14:43:06.948Z,-9.03
2022-11-22T14:45:44.261Z,-9.15
2022-11-22T14:48:23.828Z,-9.30
2022-11-22T14:51:00.481Z,-9.21
2022-11-22T14:53:52.032Z,-8.99
2022-11-22T14:56:30.081Z,-8.86
2022-11-22T14:59:01.910Z,-8.72
2022-11-22T15:01:58.714Z,-8.63
2022-11-22T15:09:20.510Z,-8.62
2022-11-22T15:09:21.464Z,-8.60
2022-11-22T15:11:06.144Z,-8.55
2022-11-22T15:13:44.638Z,-8.51
2022-11-22T15:57:54.745Z,-8.81
2022-11-22T16:00:28.111Z,-8.85
2022-11-22T16:03:02.680Z,-8.90
2022-11-22T16:06:04.655Z,-8.96
2022-11-22T16:08:26.602Z,-9.03
2022-11-22T16:11:00.016Z,-9.03
2022-11-22T16:13:34.662Z,-9.07
2022-11-22T16:16:12.851Z,-9.03
2022-11-22T16:18:43.658Z,-9.06
2022-11-22T16:21:12.485Z,-9.12
2022-11-22T16:23:42.610Z,-9.17
2022-11-22T16:26:30.082Z,-9.16
2022-11-22T16:29:29.963Z,-9.05
2022-11-22T16:32:13.061Z,-9.02
2022-11-22T16:34:46.910Z,-9.03
2022-11-22T16:37:34.654Z,-9.02
2022-11-22T16:40:07.748Z,-9.02
2022-11-22T16:42:41.272Z,-8.91
2022-11-22T16:45:22.546Z,-8.89
2022-11-22T16:48:03.773Z,-8.89
2022-11-22T16:50:40.534Z,-8.80
2022-11-22T16:53:15.488Z,-8.79
2022-11-22T16:55:44.741Z,-8.83
2022-11-22T16:58:22.701Z,-8.85
2022-11-22T17:00:54.690Z,-8.88
2022-11-22T17:03:26.872Z,-8.85
2022-11-22T17:05:55.994Z,-8.86
2022-11-22T17:08:24.879Z,-8.85
2022-11-22T17:10:53.900Z,-8.85
2022-11-22T17:13:28.626Z,-8.81
2022-11-22T17:15:58.279Z,-8.87
2022-11-22T17:18:27.181Z,-8.92
2022-11-22T17:20:56.151Z,-8.94
2022-11-22T17:23:39.284Z,-9.05
2022-11-22T17:26:10.215Z,-8.99
2022-11-22T17:28:39.116Z,-9.01
2022-11-22T17:31:16.150Z,-9.03
2022-11-22T17:33:45.354Z,-9.07
2022-11-22T17:36:35.000Z,-9.01
2022-11-22T17:39:07.929Z,-9.04
2022-11-22T17:41:37.070Z,-9.04
2022-11-22T17:44:06.597Z,-9.09
2022-11-22T17:46:40.385Z,-9.04
2022-11-22T17:49:15.359Z,-9.14
2022-11-22T17:51:45.115Z,-8.96
2022-11-22T17:54:14.002Z,-8.95
2022-11-22T17:56:42.843Z,-8.91
2022-11-22T17:59:11.705Z,-8.88
2022-11-22T18:01:41.395Z,-8.90
2022-11-22T18:04:10.653Z,-8.90
2022-11-22T18:06:39.469Z,-8.96
2022-11-22T18:09:08.306Z,-8.97
2022-11-22T18:11:37.158Z,-9.06
2022-11-22T18:14:06.072Z,-9.05
2022-11-22T18:16:34.984Z,-9.11
2022-11-22T18:19:03.936Z,-9.15
2022-11-22T18:21:33.951Z,-9.17
2022-11-22T18:24:03.137Z,-9.19
2022-11-22T18:26:40.761Z,-9.21
2022-11-22T18:32:01.882Z,-9.07
2022-11-22T18:34:31.245Z,-9.08
2022-11-22T18:37:03.463Z,-9.01
2022-11-22T18:39:38.524Z,-8.97
2022-11-22T18:42:12.756Z,-8.96
2022-11-22T18:44:41.812Z,-8.95
2022-11-22T18:47:10.812Z,-8.96
2022-11-22T18:49:39.742Z,-8.96
2022-11-22T18:52:10.711Z,-8.94
2022-11-22T18:54:42.280Z,-8.97
2022-11-22T18:57:11.152Z,-8.93
2022-11-22T18:59:40.437Z,-8.91
2022-11-22T19:02:10.115Z,-8.93
2022-11-22T19:04:39.368Z,-8.92
2022-11-22T19:07:08.258Z,-8.95
2022-11-22T19:09:37.193Z,-8.95
2022-11-22T19:12:06.216Z,-8.98
2022-11-22T19:14:35.764Z,-9.01
2022-11-22T19:17:05.005Z,-8.99
2022-11-22T19:19:34.174Z,-8.94
2022-11-22T19:22:03.975Z,-8.86
2022-11-22T19:24:33.150Z,-8.80
2022-11-22T19:27:02.510Z,-8.77
2022-11-22T19:29:31.630Z,-8.73
2022-11-22T19:32:00.629Z,-8.69
2022-11-22T19:34:30.559Z,-8.64
2022-11-22T19:37:00.904Z,-8.64
2022-11-22T19:39:29.942Z,-8.60
2022-11-22T19:41:59.002Z,-8.62
2022-11-22T19:44:27.815Z,-8.58
2022-11-22T19:46:56.648Z,-8.53
2022-11-22T19:49:26.057Z,-8.52
2022-11-22T19:51:55.010Z,-8.50
2022-11-22T19:54:23.867Z,-8.45
2022-11-22T19:56:52.835Z,-8.42
2022-11-22T19:59:21.765Z,-8.39
2022-11-22T20:01:51.319Z,-8.28
2022-11-22T20:04:20.308Z,-8.26
2022-11-22T20:06:50.534Z,-8.22
2022-11-22T20:09:19.921Z,-8.18
2022-11-22T20:11:48.911Z,-8.14
2022-11-22T20:14:17.723Z,-8.02
2022-11-22T20:16:46.545Z,-7.98
2022-11-22T20:19:16.270Z,-7.94
2022-11-22T20:21:45.458Z,-7.89
2022-11-22T20:24:14.287Z,-7.87
2022-11-22T20:26:44.362Z,-7.81
2022-11-22T20:29:14.799Z,-7.76
2022-11-22T20:31:43.987Z,-7.73
2022-11-22T20:34:14.340Z,-7.81
2022-11-22T20:36:43.535Z,-7.80
2022-11-22T20:39:12.614Z,-7.75
2022-11-22T20:41:41.633Z,-7.74
2022-11-22T20:44:14.698Z,-7.71
2022-11-22T20:46:43.720Z,-7.74
2022-11-22T20:49:13.326Z,-7.74
2022-11-22T20:51:43.304Z,-7.78
2022-11-22T20:54:13.604Z,-7.81
2022-11-22T20:56:42.453Z,-7.85
2022-11-22T20:59:11.425Z,-7.84
2022-11-22T21:01:40.943Z,-7.79
2022-11-22T21:04:09.989Z,-7.88
2022-11-22T21:06:38.844Z,-7.80
2022-11-22T21:09:07.668Z,-7.89
2022-11-22T21:11:36.615Z,-7.88
2022-11-22T21:14:05.534Z,-7.86
2022-11-22T21:16:34.266Z,-7.82
2022-11-22T21:19:07.351Z,-7.92
2022-11-22T21:21:37.726Z,-8.02
2022-11-22T21:24:07.449Z,-8.01
2022-11-22T21:26:36.160Z,-7.99
2022-11-22T21:29:14.509Z,-7.95
2022-11-22T21:31:45.014Z,-7.94
2022-11-22T21:34:13.886Z,-7.93
2022-11-22T21:36:42.766Z,-7.94
2022-11-22T21:39:11.584Z,-7.97
2022-11-22T21:41:41.207Z,-7.98
2022-11-22T21:44:11.359Z,-8.01
2022-11-22T21:46:40.275Z,-8.01
2022-11-22T21:49:09.032Z,-7.96
2022-11-22T21:51:37.831Z,-7.94
2022-11-22T21:54:07.285Z,-7.96
2022-11-22T21:56:36.600Z,-7.93
2022-11-22T21:59:05.921Z,-7.84
2022-11-22T22:01:35.271Z,-7.84
2022-11-22T22:04:05.103Z,-7.80
2022-11-22T22:06:33.947Z,-7.82
2022-11-22T22:09:02.923Z,-7.80
2022-11-22T22:11:31.768Z,-7.88
2022-11-22T22:14:00.531Z,-7.88
2022-11-22T22:16:29.324Z,-7.82
2022-11-22T22:18:58.135Z,-7.80
2022-11-22T22:21:27.008Z,-7.76
2022-11-22T22:23:55.744Z,-7.83
2022-11-22T22:26:24.524Z,-7.81
2022-11-22T22:28:54.119Z,-7.77
2022-11-22T22:31:24.433Z,-7.82
2022-11-22T22:33:57.762Z,-7.84
2022-11-22T22:36:27.848Z,-7.79
2022-11-22T22:38:56.611Z,-7.80
2022-11-22T22:41:25.337Z,-7.81
2022-11-22T22:43:54.092Z,-7.78
2022-11-22T22:46:25.436Z,-7.79
2022-11-22T22:48:57.605Z,-7.76
2022-11-22T22:51:33.112Z,-7.83
2022-11-22T22:54:02.718Z,-7.85
2022-11-22T22:56:32.678Z,-7.84
2022-11-22T22:59:01.511Z,-7.84
2022-11-22T23:01:32.490Z,-7.96
2022-11-22T23:04:03.234Z,-7.99
2022-11-22T23:06:37.211Z,-8.02
2022-11-22T23:09:08.488Z,-7.93
2022-11-22T23:11:56.584Z,-7.83
2022-11-22T23:14:27.894Z,-7.83
2022-11-22T23:16:58.290Z,-7.93
2022-11-22T23:19:28.576Z,-7.94
2022-11-22T23:21:57.529Z,-7.98
2022-11-22T23:24:26.366Z,-8.02
2022-11-22T23:26:55.228Z,-7.97
2022-11-22T23:29:23.947Z,-7.99
2022-11-22T23:31:53.316Z,-7.98
2022-11-22T23:34:22.596Z,-7.95
2022-11-22T23:36:51.369Z,-7.94
2022-11-22T23:39:20.403Z,-7.93
2022-11-22T23:41:49.693Z,-7.78
2022-11-22T23:44:18.703Z,-7.69
2022-11-22T23:46:47.555Z,-7.64
2022-11-22T23:49:16.314Z,-7.51
2022-11-22T23:51:46.819Z,-7.49
2022-11-22T23:54:15.777Z,-7.49
2022-11-22T23:56:44.745Z,-7.38
2022-11-22T23:59:14.066Z,-7.38
